sensor_id;sensor_type;location;lat;lon;timestamp;P1;durP1;ratioP1;P2;durP2;ratioP2
48941;SDS011;35340;52.378;4.648;2022-08-27T00:02:15;4.07;;;1.88;;
48941;SDS011;35340;52.378;4.648;2022-08-27T00:04:41;4.30;;;1.58;;
48941;SDS011;35340;52.378;4.648;2022-08-27T00:07:08;3.42;;;1.88;;
48941;SDS011;35340;52.378;4.648;2022-08-27T00:09:35;3.30;;;1.70;;
48941;SDS011;35340;52.378;4.648;2022-08-27T00:12:01;4.00;;;1.75;;
48941;SDS011;35340;52.378;4.648;2022-08-27T00:14:27;4.47;;;1.77;;
48941;SDS011;35340;52.378;4.648;2022-08-27T00:16:54;4.82;;;1.70;;
48941;SDS011;35340;52.378;4.648;2022-08-27T00:19:20;3.47;;;1.60;;
48941;SDS011;35340;52.378;4.648;2022-08-27T00:21:45;3.25;;;1.63;;
48941;SDS011;35340;52.378;4.648;2022-08-27T00:24:11;4.05;;;1.83;;
48941;SDS011;35340;52.378;4.648;2022-08-27T00:26:36;3.92;;;1.67;;
48941;SDS011;35340;52.378;4.648;2022-08-27T00:29:02;4.78;;;1.60;;
48941;SDS011;35340;52.378;4.648;2022-08-27T00:31:28;3.95;;;1.67;;
48941;SDS011;35340;52.378;4.648;2022-08-27T00:33:54;3.42;;;1.67;;
48941;SDS011;35340;52.378;4.648;2022-08-27T00:36:19;2.88;;;1.50;;
48941;SDS011;35340;52.378;4.648;2022-08-27T00:38:45;3.22;;;1.60;;
48941;SDS011;35340;52.378;4.648;2022-08-27T00:41:11;2.50;;;1.40;;
48941;SDS011;35340;52.378;4.648;2022-08-27T00:43:57;2.80;;;1.60;;
48941;SDS011;35340;52.378;4.648;2022-08-27T00:46:33;3.00;;;1.67;;
48941;SDS011;35340;52.378;4.648;2022-08-27T00:49:05;4.75;;;1.88;;
48941;SDS011;35340;52.378;4.648;2022-08-27T00:51:43;3.38;;;1.60;;
48941;SDS011;35340;52.378;4.648;2022-08-27T00:54:11;4.40;;;1.75;;
48941;SDS011;35340;52.378;4.648;2022-08-27T00:59:02;3.00;;;1.42;;
48941;SDS011;35340;52.378;4.648;2022-08-27T01:01:28;3.85;;;1.60;;
48941;SDS011;35340;52.378;4.648;2022-08-27T01:03:58;4.00;;;1.52;;
48941;SDS011;35340;52.378;4.648;2022-08-27T01:06:27;3.97;;;1.67;;
48941;SDS011;35340;52.378;4.648;2022-08-27T01:08:57;3.60;;;1.70;;
48941;SDS011;35340;52.378;4.648;2022-08-27T01:11:28;3.20;;;1.37;;
48941;SDS011;35340;52.378;4.648;2022-08-27T01:13:55;3.55;;;1.45;;
48941;SDS011;35340;52.378;4.648;2022-08-27T01:16:22;4.40;;;1.77;;
48941;SDS011;35340;52.378;4.648;2022-08-27T01:18:50;2.33;;;1.42;;
48941;SDS011;35340;52.378;4.648;2022-08-27T01:27:03;3.17;;;1.30;;
48941;SDS011;35340;52.378;4.648;2022-08-27T01:29:31;2.63;;;1.40;;
48941;SDS011;35340;52.378;4.648;2022-08-27T01:32:07;4.65;;;1.63;;
48941;SDS011;35340;52.378;4.648;2022-08-27T01:34:37;3.50;;;1.42;;
48941;SDS011;35340;52.378;4.648;2022-08-27T01:37:02;5.30;;;1.60;;
48941;SDS011;35340;52.378;4.648;2022-08-27T01:39:30;3.65;;;1.25;;
48941;SDS011;35340;52.378;4.648;2022-08-27T01:42:00;3.22;;;1.50;;
48941;SDS011;35340;52.378;4.648;2022-08-27T01:44:40;3.22;;;1.50;;
48941;SDS011;35340;52.378;4.648;2022-08-27T01:47:02;2.90;;;1.30;;
48941;SDS011;35340;52.378;4.648;2022-08-27T01:49:27;6.75;;;1.60;;
48941;SDS011;35340;52.378;4.648;2022-08-27T01:51:54;4.60;;;1.60;;
48941;SDS011;35340;52.378;4.648;2022-08-27T01:54:20;6.22;;;1.65;;
48941;SDS011;35340;52.378;4.648;2022-08-27T01:56:45;4.50;;;1.45;;
48941;SDS011;35340;52.378;4.648;2022-08-27T01:59:11;3.20;;;1.38;;
48941;SDS011;35340;52.378;4.648;2022-08-27T02:01:36;2.58;;;1.40;;
48941;SDS011;35340;52.378;4.648;2022-08-27T02:04:02;4.35;;;1.42;;
48941;SDS011;35340;52.378;4.648;2022-08-27T02:06:27;3.85;;;1.63;;
48941;SDS011;35340;52.378;4.648;2022-08-27T02:08:53;3.35;;;1.73;;
48941;SDS011;35340;52.378;4.648;2022-08-27T02:11:18;3.65;;;1.45;;
48941;SDS011;35340;52.378;4.648;2022-08-27T02:13:44;3.60;;;1.42;;
48941;SDS011;35340;52.378;4.648;2022-08-27T02:16:09;3.28;;;1.50;;
48941;SDS011;35340;52.378;4.648;2022-08-27T02:18:35;3.72;;;1.45;;
48941;SDS011;35340;52.378;4.648;2022-08-27T02:21:02;4.35;;;1.50;;
48941;SDS011;35340;52.378;4.648;2022-08-27T02:23:27;4.28;;;1.33;;
48941;SDS011;35340;52.378;4.648;2022-08-27T02:25:53;3.63;;;1.60;;
48941;SDS011;35340;52.378;4.648;2022-08-27T02:28:18;3.40;;;1.40;;
48941;SDS011;35340;52.378;4.648;2022-08-27T02:30:44;3.05;;;1.42;;
48941;SDS011;35340;52.378;4.648;2022-08-27T02:33:09;2.28;;;1.35;;
48941;SDS011;35340;52.378;4.648;2022-08-27T02:35:35;3.70;;;1.60;;
48941;SDS011;35340;52.378;4.648;2022-08-27T02:38:02;3.58;;;1.50;;
48941;SDS011;35340;52.378;4.648;2022-08-27T02:40:27;2.80;;;1.40;;
48941;SDS011;35340;52.378;4.648;2022-08-27T02:42:53;3.15;;;1.20;;
48941;SDS011;35340;52.378;4.648;2022-08-27T02:45:19;3.88;;;1.45;;
48941;SDS011;35340;52.378;4.648;2022-08-27T02:47:46;2.95;;;1.23;;
48941;SDS011;35340;52.378;4.648;2022-08-27T02:50:12;3.47;;;1.30;;
48941;SDS011;35340;52.378;4.648;2022-08-27T02:52:38;2.58;;;1.40;;
48941;SDS011;35340;52.378;4.648;2022-08-27T02:55:04;3.95;;;1.60;;
48941;SDS011;35340;52.378;4.648;2022-08-27T02:57:30;3.50;;;1.40;;
48941;SDS011;35340;52.378;4.648;2022-08-27T02:59:56;2.03;;;1.27;;
48941;SDS011;35340;52.378;4.648;2022-08-27T03:02:21;3.72;;;1.63;;
48941;SDS011;35340;52.378;4.648;2022-08-27T03:04:47;2.90;;;1.40;;
48941;SDS011;35340;52.378;4.648;2022-08-27T03:07:13;3.70;;;1.40;;
48941;SDS011;35340;52.378;4.648;2022-08-27T03:09:39;3.67;;;1.50;;
48941;SDS011;35340;52.378;4.648;2022-08-27T03:12:04;3.35;;;1.60;;
48941;SDS011;35340;52.378;4.648;2022-08-27T03:14:30;4.00;;;1.33;;
48941;SDS011;35340;52.378;4.648;2022-08-27T03:16:56;3.10;;;1.45;;
48941;SDS011;35340;52.378;4.648;2022-08-27T03:19:42;2.70;;;1.50;;
48941;SDS011;35340;52.378;4.648;2022-08-27T03:22:07;3.38;;;1.60;;
48941;SDS011;35340;52.378;4.648;2022-08-27T03:24:34;2.95;;;1.40;;
48941;SDS011;35340;52.378;4.648;2022-08-27T03:26:59;2.75;;;1.40;;
48941;SDS011;35340;52.378;4.648;2022-08-27T03:29:25;2.80;;;1.33;;
48941;SDS011;35340;52.378;4.648;2022-08-27T03:31:52;4.55;;;1.73;;
48941;SDS011;35340;52.378;4.648;2022-08-27T03:34:17;3.85;;;1.33;;
48941;SDS011;35340;52.378;4.648;2022-08-27T03:36:43;5.25;;;1.33;;
48941;SDS011;35340;52.378;4.648;2022-08-27T03:39:11;2.50;;;1.48;;
48941;SDS011;35340;52.378;4.648;2022-08-27T03:41:37;3.53;;;1.50;;
48941;SDS011;35340;52.378;4.648;2022-08-27T03:44:02;3.67;;;1.38;;
48941;SDS011;35340;52.378;4.648;2022-08-27T03:46:28;3.33;;;1.60;;
48941;SDS011;35340;52.378;4.648;2022-08-27T03:48:54;7.70;;;1.80;;
48941;SDS011;35340;52.378;4.648;2022-08-27T03:51:20;5.30;;;1.30;;
48941;SDS011;35340;52.378;4.648;2022-08-27T03:53:45;4.55;;;1.45;;
48941;SDS011;35340;52.378;4.648;2022-08-27T03:56:11;6.43;;;1.55;;
48941;SDS011;35340;52.378;4.648;2022-08-27T03:58:37;3.35;;;1.48;;
48941;SDS011;35340;52.378;4.648;2022-08-27T04:01:03;4.50;;;1.67;;
48941;SDS011;35340;52.378;4.648;2022-08-27T04:03:29;2.35;;;1.30;;
48941;SDS011;35340;52.378;4.648;2022-08-27T04:05:55;3.20;;;1.50;;
48941;SDS011;35340;52.378;4.648;2022-08-27T04:08:22;1.75;;;1.20;;
48941;SDS011;35340;52.378;4.648;2022-08-27T04:10:49;4.10;;;1.50;;
48941;SDS011;35340;52.378;4.648;2022-08-27T04:13:15;2.60;;;1.40;;
48941;SDS011;35340;52.378;4.648;2022-08-27T04:15:45;3.28;;;1.60;;
48941;SDS011;35340;52.378;4.648;2022-08-27T04:18:12;3.30;;;1.50;;
48941;SDS011;35340;52.378;4.648;2022-08-27T04:20:45;3.47;;;1.48;;
48941;SDS011;35340;52.378;4.648;2022-08-27T04:23:11;3.20;;;1.40;;
48941;SDS011;35340;52.378;4.648;2022-08-27T04:25:38;3.17;;;1.50;;
48941;SDS011;35340;52.378;4.648;2022-08-27T04:28:04;3.20;;;1.50;;
48941;SDS011;35340;52.378;4.648;2022-08-27T04:30:30;2.88;;;1.65;;
48941;SDS011;35340;52.378;4.648;2022-08-27T04:32:56;4.47;;;1.80;;
48941;SDS011;35340;52.378;4.648;2022-08-27T04:35:22;5.03;;;1.52;;
48941;SDS011;35340;52.378;4.648;2022-08-27T04:37:48;4.82;;;1.77;;
48941;SDS011;35340;52.378;4.648;2022-08-27T04:40:13;3.50;;;1.63;;
48941;SDS011;35340;52.378;4.648;2022-08-27T04:42:38;3.92;;;1.80;;
48941;SDS011;35340;52.378;4.648;2022-08-27T04:45:04;3.35;;;1.73;;
48941;SDS011;35340;52.378;4.648;2022-08-27T04:47:29;5.15;;;1.83;;
48941;SDS011;35340;52.378;4.648;2022-08-27T04:49:55;3.72;;;1.77;;
48941;SDS011;35340;52.378;4.648;2022-08-27T04:52:21;3.42;;;1.70;;
48941;SDS011;35340;52.378;4.648;2022-08-27T04:54:46;2.88;;;1.70;;
48941;SDS011;35340;52.378;4.648;2022-08-27T04:57:11;3.33;;;1.90;;
48941;SDS011;35340;52.378;4.648;2022-08-27T04:59:37;4.57;;;1.73;;
48941;SDS011;35340;52.378;4.648;2022-08-27T05:02:03;5.53;;;1.93;;
48941;SDS011;35340;52.378;4.648;2022-08-27T05:04:30;4.53;;;1.83;;
48941;SDS011;35340;52.378;4.648;2022-08-27T05:06:56;4.05;;;1.67;;
48941;SDS011;35340;52.378;4.648;2022-08-27T05:09:21;3.50;;;1.75;;
48941;SDS011;35340;52.378;4.648;2022-08-27T05:11:47;3.85;;;1.67;;
48941;SDS011;35340;52.378;4.648;2022-08-27T05:14:13;3.17;;;1.80;;
48941;SDS011;35340;52.378;4.648;2022-08-27T05:16:40;4.35;;;1.77;;
48941;SDS011;35340;52.378;4.648;2022-08-27T05:19:07;3.20;;;1.70;;
48941;SDS011;35340;52.378;4.648;2022-08-27T05:21:37;3.88;;;1.80;;
48941;SDS011;35340;52.378;4.648;2022-08-27T05:24:03;4.40;;;1.80;;
48941;SDS011;35340;52.378;4.648;2022-08-27T05:26:31;3.72;;;1.60;;
48941;SDS011;35340;52.378;4.648;2022-08-27T05:28:58;5.55;;;1.70;;
48941;SDS011;35340;52.378;4.648;2022-08-27T05:31:24;4.70;;;1.80;;
48941;SDS011;35340;52.378;4.648;2022-08-27T05:33:49;4.55;;;2.10;;
48941;SDS011;35340;52.378;4.648;2022-08-27T05:36:19;4.13;;;1.73;;
48941;SDS011;35340;52.378;4.648;2022-08-27T05:38:46;2.30;;;1.65;;
48941;SDS011;35340;52.378;4.648;2022-08-27T05:41:21;4.90;;;1.90;;
48941;SDS011;35340;52.378;4.648;2022-08-27T05:43:49;3.63;;;2.00;;
48941;SDS011;35340;52.378;4.648;2022-08-27T05:46:16;3.97;;;2.28;;
48941;SDS011;35340;52.378;4.648;2022-08-27T05:48:43;2.83;;;1.75;;
48941;SDS011;35340;52.378;4.648;2022-08-27T05:51:13;4.32;;;1.90;;
48941;SDS011;35340;52.378;4.648;2022-08-27T05:53:40;3.35;;;1.90;;
48941;SDS011;35340;52.378;4.648;2022-08-27T05:56:15;4.03;;;1.80;;
48941;SDS011;35340;52.378;4.648;2022-08-27T05:58:43;4.38;;;1.80;;
48941;SDS011;35340;52.378;4.648;2022-08-27T06:01:28;4.43;;;1.65;;
48941;SDS011;35340;52.378;4.648;2022-08-27T06:03:55;4.90;;;1.73;;
48941;SDS011;35340;52.378;4.648;2022-08-27T06:06:20;4.20;;;1.70;;
48941;SDS011;35340;52.378;4.648;2022-08-27T06:08:47;4.93;;;1.70;;
48941;SDS011;35340;52.378;4.648;2022-08-27T06:11:15;5.68;;;2.00;;
48941;SDS011;35340;52.378;4.648;2022-08-27T06:13:42;3.63;;;1.75;;
48941;SDS011;35340;52.378;4.648;2022-08-27T06:16:09;11.73;;;1.75;;
48941;SDS011;35340;52.378;4.648;2022-08-27T06:31:25;4.25;;;2.10;;
48941;SDS011;35340;52.378;4.648;2022-08-27T06:48:40;6.18;;;1.83;;
48941;SDS011;35340;52.378;4.648;2022-08-27T06:54:16;5.15;;;1.88;;
48941;SDS011;35340;52.378;4.648;2022-08-27T07:27:39;6.47;;;1.80;;
48941;SDS011;35340;52.378;4.648;2022-08-27T07:30:06;4.80;;;1.80;;
48941;SDS011;35340;52.378;4.648;2022-08-27T07:32:36;7.50;;;1.70;;
48941;SDS011;35340;52.378;4.648;2022-08-27T07:35:02;4.38;;;1.90;;
48941;SDS011;35340;52.378;4.648;2022-08-27T07:37:28;5.97;;;2.00;;
48941;SDS011;35340;52.378;4.648;2022-08-27T07:39:53;4.45;;;1.80;;
48941;SDS011;35340;52.378;4.648;2022-08-27T07:42:19;6.72;;;1.85;;
48941;SDS011;35340;52.378;4.648;2022-08-27T07:45:02;5.88;;;2.00;;
48941;SDS011;35340;52.378;4.648;2022-08-27T07:47:29;4.82;;;1.77;;
48941;SDS011;35340;52.378;4.648;2022-08-27T07:49:56;4.90;;;2.00;;
48941;SDS011;35340;52.378;4.648;2022-08-27T07:52:22;7.40;;;1.92;;
48941;SDS011;35340;52.378;4.648;2022-08-27T07:54:47;5.57;;;1.85;;
48941;SDS011;35340;52.378;4.648;2022-08-27T07:57:12;6.80;;;1.92;;
48941;SDS011;35340;52.378;4.648;2022-08-27T07:59:38;5.15;;;1.88;;
48941;SDS011;35340;52.378;4.648;2022-08-27T08:02:03;6.38;;;2.00;;
48941;SDS011;35340;52.378;4.648;2022-08-27T08:04:29;6.22;;;2.00;;
48941;SDS011;35340;52.378;4.648;2022-08-27T08:06:54;5.40;;;1.75;;
48941;SDS011;35340;52.378;4.648;2022-08-27T08:09:20;6.93;;;2.05;;
48941;SDS011;35340;52.378;4.648;2022-08-27T08:11:48;4.78;;;1.70;;
48941;SDS011;35340;52.378;4.648;2022-08-27T08:14:14;4.57;;;1.95;;
48941;SDS011;35340;52.378;4.648;2022-08-27T08:16:42;7.20;;;2.20;;
48941;SDS011;35340;52.378;4.648;2022-08-27T08:19:09;6.88;;;2.00;;
48941;SDS011;35340;52.378;4.648;2022-08-27T09:37:44;6.10;;;1.70;;
48941;SDS011;35340;52.378;4.648;2022-08-27T09:40:17;7.80;;;2.03;;
48941;SDS011;35340;52.378;4.648;2022-08-27T09:52:05;10.00;;;1.90;;
48941;SDS011;35340;52.378;4.648;2022-08-27T09:57:05;5.63;;;1.73;;
48941;SDS011;35340;52.378;4.648;2022-08-27T09:59:37;9.15;;;1.70;;
48941;SDS011;35340;52.378;4.648;2022-08-27T10:02:16;4.38;;;1.58;;
48941;SDS011;35340;52.378;4.648;2022-08-27T10:04:48;5.22;;;1.75;;
48941;SDS011;35340;52.378;4.648;2022-08-27T10:10:09;6.95;;;1.85;;
48941;SDS011;35340;52.378;4.648;2022-08-27T10:12:48;4.90;;;1.50;;
48941;SDS011;35340;52.378;4.648;2022-08-27T10:15:19;5.60;;;1.73;;
48941;SDS011;35340;52.378;4.648;2022-08-27T10:20:27;5.70;;;1.80;;
48941;SDS011;35340;52.378;4.648;2022-08-27T10:25:55;6.60;;;1.58;;
48941;SDS011;35340;52.378;4.648;2022-08-27T10:31:15;5.13;;;1.52;;
48941;SDS011;35340;52.378;4.648;2022-08-27T10:34:06;6.20;;;1.60;;
48941;SDS011;35340;52.378;4.648;2022-08-27T10:50:12;5.60;;;1.60;;
48941;SDS011;35340;52.378;4.648;2022-08-27T10:55:37;4.57;;;1.48;;
48941;SDS011;35340;52.378;4.648;2022-08-27T11:00:51;5.93;;;2.10;;
48941;SDS011;35340;52.378;4.648;2022-08-27T11:03:35;10.35;;;1.77;;
48941;SDS011;35340;52.378;4.648;2022-08-27T11:06:05;9.35;;;1.70;;
48941;SDS011;35340;52.378;4.648;2022-08-27T11:08:56;9.07;;;3.08;;
48941;SDS011;35340;52.378;4.648;2022-08-27T11:11:30;7.50;;;1.80;;
48941;SDS011;35340;52.378;4.648;2022-08-27T11:14:01;7.90;;;2.05;;
48941;SDS011;35340;52.378;4.648;2022-08-27T11:19:11;10.15;;;1.80;;
48941;SDS011;35340;52.378;4.648;2022-08-27T11:21:50;5.80;;;1.90;;
48941;SDS011;35340;52.378;4.648;2022-08-27T11:26:58;6.05;;;1.83;;
48941;SDS011;35340;52.378;4.648;2022-08-27T11:29:28;7.38;;;1.83;;
48941;SDS011;35340;52.378;4.648;2022-08-27T11:31:59;8.65;;;2.20;;
48941;SDS011;35340;52.378;4.648;2022-08-27T11:34:50;8.75;;;2.20;;
48941;SDS011;35340;52.378;4.648;2022-08-27T13:42:03;3.28;;;1.10;;
48941;SDS011;35340;52.378;4.648;2022-08-27T13:45:11;3.97;;;1.30;;
48941;SDS011;35340;52.378;4.648;2022-08-27T15:36:11;8.13;;;2.17;;
48941;SDS011;35340;52.378;4.648;2022-08-27T15:38:38;8.18;;;2.00;;
48941;SDS011;35340;52.378;4.648;2022-08-27T15:41:39;6.63;;;2.20;;
48941;SDS011;35340;52.378;4.648;2022-08-27T15:44:10;6.43;;;2.13;;
48941;SDS011;35340;52.378;4.648;2022-08-27T15:49:03;8.68;;;2.10;;
48941;SDS011;35340;52.378;4.648;2022-08-27T15:51:31;20.63;;;10.45;;
48941;SDS011;35340;52.378;4.648;2022-08-27T15:56:46;13.52;;;4.57;;
48941;SDS011;35340;52.378;4.648;2022-08-27T15:59:46;8.13;;;3.55;;
48941;SDS011;35340;52.378;4.648;2022-08-27T16:02:14;5.57;;;2.25;;
48941;SDS011;35340;52.378;4.648;2022-08-27T16:04:43;9.20;;;2.40;;
48941;SDS011;35340;52.378;4.648;2022-08-27T16:07:09;7.10;;;2.42;;
48941;SDS011;35340;52.378;4.648;2022-08-27T16:09:34;13.18;;;4.20;;
48941;SDS011;35340;52.378;4.648;2022-08-27T16:12:00;11.25;;;3.42;;
48941;SDS011;35340;52.378;4.648;2022-08-27T16:14:25;14.10;;;3.55;;
48941;SDS011;35340;52.378;4.648;2022-08-27T16:16:51;33.65;;;10.45;;
48941;SDS011;35340;52.378;4.648;2022-08-27T16:19:17;44.88;;;11.80;;
48941;SDS011;35340;52.378;4.648;2022-08-27T16:21:44;42.95;;;10.80;;
48941;SDS011;35340;52.378;4.648;2022-08-27T16:24:10;28.83;;;10.20;;
48941;SDS011;35340;52.378;4.648;2022-08-27T16:26:37;33.85;;;9.68;;
48941;SDS011;35340;52.378;4.648;2022-08-27T16:29:03;29.27;;;8.98;;
48941;SDS011;35340;52.378;4.648;2022-08-27T16:31:30;22.77;;;6.50;;
48941;SDS011;35340;52.378;4.648;2022-08-27T16:34:03;15.55;;;4.78;;
48941;SDS011;35340;52.378;4.648;2022-08-27T16:36:35;15.07;;;5.07;;
48941;SDS011;35340;52.378;4.648;2022-08-27T16:39:00;14.93;;;4.90;;
48941;SDS011;35340;52.378;4.648;2022-08-27T16:41:25;12.48;;;4.30;;
48941;SDS011;35340;52.378;4.648;2022-08-27T16:43:51;11.48;;;3.97;;
48941;SDS011;35340;52.378;4.648;2022-08-27T16:46:17;10.88;;;3.90;;
48941;SDS011;35340;52.378;4.648;2022-08-27T16:48:42;10.20;;;4.00;;
48941;SDS011;35340;52.378;4.648;2022-08-27T16:51:31;14.85;;;4.18;;
48941;SDS011;35340;52.378;4.648;2022-08-27T16:54:02;10.98;;;4.18;;
48941;SDS011;35340;52.378;4.648;2022-08-27T16:56:28;12.57;;;3.80;;
48941;SDS011;35340;52.378;4.648;2022-08-27T16:58:54;12.18;;;3.70;;
48941;SDS011;35340;52.378;4.648;2022-08-27T17:01:20;8.52;;;3.80;;
48941;SDS011;35340;52.378;4.648;2022-08-27T17:03:48;9.45;;;3.65;;
48941;SDS011;35340;52.378;4.648;2022-08-27T17:06:21;7.50;;;3.05;;
48941;SDS011;35340;52.378;4.648;2022-08-27T17:08:49;8.40;;;3.00;;
48941;SDS011;35340;52.378;4.648;2022-08-27T17:11:16;11.80;;;3.50;;
48941;SDS011;35340;52.378;4.648;2022-08-27T17:13:44;9.18;;;2.83;;
48941;SDS011;35340;52.378;4.648;2022-08-27T17:16:13;11.45;;;3.40;;
48941;SDS011;35340;52.378;4.648;2022-08-27T17:18:40;7.82;;;3.03;;
48941;SDS011;35340;52.378;4.648;2022-08-27T17:21:06;5.53;;;2.70;;
48941;SDS011;35340;52.378;4.648;2022-08-27T17:25:59;6.22;;;2.60;;
48941;SDS011;35340;52.378;4.648;2022-08-27T17:28:25;7.35;;;2.72;;
48941;SDS011;35340;52.378;4.648;2022-08-27T17:30:51;8.00;;;2.70;;
48941;SDS011;35340;52.378;4.648;2022-08-27T17:33:31;7.05;;;2.58;;
48941;SDS011;35340;52.378;4.648;2022-08-27T17:36:03;7.72;;;2.92;;
48941;SDS011;35340;52.378;4.648;2022-08-27T17:38:41;6.05;;;2.75;;
48941;SDS011;35340;52.378;4.648;2022-08-27T17:41:14;8.57;;;3.03;;
48941;SDS011;35340;52.378;4.648;2022-08-27T17:43:40;7.25;;;2.88;;
48941;SDS011;35340;52.378;4.648;2022-08-27T17:46:11;6.35;;;2.58;;
48941;SDS011;35340;52.378;4.648;2022-08-27T17:48:38;7.28;;;2.85;;
48941;SDS011;35340;52.378;4.648;2022-08-27T17:51:05;5.55;;;2.63;;
48941;SDS011;35340;52.378;4.648;2022-08-27T17:53:36;7.05;;;2.88;;
48941;SDS011;35340;52.378;4.648;2022-08-27T17:56:04;5.47;;;2.50;;
48941;SDS011;35340;52.378;4.648;2022-08-27T17:58:32;6.53;;;2.60;;
48941;SDS011;35340;52.378;4.648;2022-08-27T18:03:41;5.95;;;2.65;;
48941;SDS011;35340;52.378;4.648;2022-08-27T18:06:09;8.25;;;3.10;;
48941;SDS011;35340;52.378;4.648;2022-08-27T18:11:03;6.25;;;2.58;;
48941;SDS011;35340;52.378;4.648;2022-08-27T18:13:29;5.75;;;2.40;;
48941;SDS011;35340;52.378;4.648;2022-08-27T18:15:56;5.60;;;2.80;;
48941;SDS011;35340;52.378;4.648;2022-08-27T18:18:22;6.68;;;2.92;;
48941;SDS011;35340;52.378;4.648;2022-08-27T18:20:48;5.70;;;2.40;;
48941;SDS011;35340;52.378;4.648;2022-08-27T18:23:22;6.15;;;2.83;;
48941;SDS011;35340;52.378;4.648;2022-08-27T18:25:48;4.38;;;2.28;;
48941;SDS011;35340;52.378;4.648;2022-08-27T18:28:29;4.65;;;2.55;;
48941;SDS011;35340;52.378;4.648;2022-08-27T18:30:55;4.45;;;2.50;;
48941;SDS011;35340;52.378;4.648;2022-08-27T18:33:22;5.93;;;2.90;;
48941;SDS011;35340;52.378;4.648;2022-08-27T18:35:48;4.78;;;2.58;;
48941;SDS011;35340;52.378;4.648;2022-08-27T18:38:16;6.65;;;2.85;;
48941;SDS011;35340;52.378;4.648;2022-08-27T18:40:43;6.75;;;2.88;;
48941;SDS011;35340;52.378;4.648;2022-08-27T18:43:13;5.63;;;2.50;;
48941;SDS011;35340;52.378;4.648;2022-08-27T18:45:40;5.03;;;2.25;;
48941;SDS011;35340;52.378;4.648;2022-08-27T18:48:14;6.90;;;2.95;;
48941;SDS011;35340;52.378;4.648;2022-08-27T18:50:46;5.18;;;2.72;;
48941;SDS011;35340;52.378;4.648;2022-08-27T18:53:15;4.72;;;2.60;;
48941;SDS011;35340;52.378;4.648;2022-08-27T18:55:41;6.10;;;2.72;;
48941;SDS011;35340;52.378;4.648;2022-08-27T18:58:06;5.47;;;2.50;;
48941;SDS011;35340;52.378;4.648;2022-08-27T19:00:32;5.15;;;2.72;;
48941;SDS011;35340;52.378;4.648;2022-08-27T19:02:57;6.57;;;2.97;;
48941;SDS011;35340;52.378;4.648;2022-08-27T19:05:25;6.70;;;3.13;;
48941;SDS011;35340;52.378;4.648;2022-08-27T19:07:51;5.70;;;2.88;;
48941;SDS011;35340;52.378;4.648;2022-08-27T19:10:17;4.40;;;2.80;;
48941;SDS011;35340;52.378;4.648;2022-08-27T19:12:46;3.95;;;2.80;;
48941;SDS011;35340;52.378;4.648;2022-08-27T19:15:11;8.25;;;3.13;;
48941;SDS011;35340;52.378;4.648;2022-08-27T19:20:03;5.55;;;3.00;;
48941;SDS011;35340;52.378;4.648;2022-08-27T19:22:30;6.97;;;2.85;;
48941;SDS011;35340;52.378;4.648;2022-08-27T19:24:59;5.70;;;2.97;;
48941;SDS011;35340;52.378;4.648;2022-08-27T19:27:25;5.63;;;3.00;;
48941;SDS011;35340;52.378;4.648;2022-08-27T19:29:53;4.95;;;2.90;;
48941;SDS011;35340;52.378;4.648;2022-08-27T19:32:20;5.82;;;2.80;;
48941;SDS011;35340;52.378;4.648;2022-08-27T19:34:45;6.88;;;2.90;;
48941;SDS011;35340;52.378;4.648;2022-08-27T19:37:12;6.93;;;3.30;;
48941;SDS011;35340;52.378;4.648;2022-08-27T19:39:45;7.28;;;2.63;;
48941;SDS011;35340;52.378;4.648;2022-08-27T19:42:13;7.53;;;2.90;;
48941;SDS011;35340;52.378;4.648;2022-08-27T19:44:38;6.00;;;3.10;;
48941;SDS011;35340;52.378;4.648;2022-08-27T19:47:04;13.45;;;3.38;;
48941;SDS011;35340;52.378;4.648;2022-08-27T19:49:49;8.90;;;3.17;;
48941;SDS011;35340;52.378;4.648;2022-08-27T19:52:14;6.63;;;3.40;;
48941;SDS011;35340;52.378;4.648;2022-08-27T19:54:39;9.90;;;3.13;;
48941;SDS011;35340;52.378;4.648;2022-08-27T19:57:07;7.05;;;3.33;;
48941;SDS011;35340;52.378;4.648;2022-08-27T19:59:34;6.40;;;3.70;;
48941;SDS011;35340;52.378;4.648;2022-08-27T20:01:59;8.30;;;3.20;;
48941;SDS011;35340;52.378;4.648;2022-08-27T20:04:26;14.10;;;3.88;;
48941;SDS011;35340;52.378;4.648;2022-08-27T20:06:52;7.80;;;3.40;;
48941;SDS011;35340;52.378;4.648;2022-08-27T20:09:17;6.32;;;2.90;;
48941;SDS011;35340;52.378;4.648;2022-08-27T20:11:46;9.73;;;3.80;;
48941;SDS011;35340;52.378;4.648;2022-08-27T20:14:14;7.28;;;3.60;;
48941;SDS011;35340;52.378;4.648;2022-08-27T20:16:40;7.10;;;3.35;;
48941;SDS011;35340;52.378;4.648;2022-08-27T20:19:06;7.03;;;3.58;;
48941;SDS011;35340;52.378;4.648;2022-08-27T20:21:31;8.38;;;3.40;;
48941;SDS011;35340;52.378;4.648;2022-08-27T20:23:57;9.82;;;3.70;;
48941;SDS011;35340;52.378;4.648;2022-08-27T20:26:22;8.35;;;3.75;;
48941;SDS011;35340;52.378;4.648;2022-08-27T20:28:48;6.88;;;3.50;;
48941;SDS011;35340;52.378;4.648;2022-08-27T20:31:14;8.02;;;4.03;;
48941;SDS011;35340;52.378;4.648;2022-08-27T20:33:41;7.30;;;3.88;;
48941;SDS011;35340;52.378;4.648;2022-08-27T20:36:07;7.75;;;3.60;;
48941;SDS011;35340;52.378;4.648;2022-08-27T20:38:33;9.27;;;3.95;;
48941;SDS011;35340;52.378;4.648;2022-08-27T20:41:02;6.55;;;3.95;;
48941;SDS011;35340;52.378;4.648;2022-08-27T20:43:29;8.93;;;4.20;;
48941;SDS011;35340;52.378;4.648;2022-08-27T20:45:54;8.23;;;4.20;;
48941;SDS011;35340;52.378;4.648;2022-08-27T20:48:20;9.60;;;4.18;;
48941;SDS011;35340;52.378;4.648;2022-08-27T20:50:45;7.90;;;4.05;;
48941;SDS011;35340;52.378;4.648;2022-08-27T20:53:11;6.22;;;3.78;;
48941;SDS011;35340;52.378;4.648;2022-08-27T20:55:36;12.63;;;4.45;;
48941;SDS011;35340;52.378;4.648;2022-08-27T20:58:02;9.52;;;3.97;;
48941;SDS011;35340;52.378;4.648;2022-08-27T21:00:49;9.65;;;4.32;;
48941;SDS011;35340;52.378;4.648;2022-08-27T21:03:16;9.35;;;4.53;;
48941;SDS011;35340;52.378;4.648;2022-08-27T21:05:41;7.55;;;4.20;;
48941;SDS011;35340;52.378;4.648;2022-08-27T21:08:11;9.15;;;3.88;;
48941;SDS011;35340;52.378;4.648;2022-08-27T21:10:41;8.68;;;4.05;;
48941;SDS011;35340;52.378;4.648;2022-08-27T21:13:03;7.95;;;4.35;;
48941;SDS011;35340;52.378;4.648;2022-08-27T21:15:29;8.85;;;4.20;;
48941;SDS011;35340;52.378;4.648;2022-08-27T21:17:54;8.30;;;4.43;;
48941;SDS011;35340;52.378;4.648;2022-08-27T21:20:19;9.85;;;4.18;;
48941;SDS011;35340;52.378;4.648;2022-08-27T21:22:45;6.63;;;4.05;;
48941;SDS011;35340;52.378;4.648;2022-08-27T21:25:14;13.95;;;4.25;;
48941;SDS011;35340;52.378;4.648;2022-08-27T21:27:40;11.68;;;4.03;;
48941;SDS011;35340;52.378;4.648;2022-08-27T21:30:06;8.15;;;4.18;;
48941;SDS011;35340;52.378;4.648;2022-08-27T21:32:32;11.25;;;4.30;;
48941;SDS011;35340;52.378;4.648;2022-08-27T21:34:57;9.95;;;3.88;;
48941;SDS011;35340;52.378;4.648;2022-08-27T21:37:22;9.35;;;4.30;;
48941;SDS011;35340;52.378;4.648;2022-08-27T21:39:48;7.55;;;3.55;;
48941;SDS011;35340;52.378;4.648;2022-08-27T21:42:15;11.75;;;3.95;;
48941;SDS011;35340;52.378;4.648;2022-08-27T21:44:40;8.32;;;3.78;;
48941;SDS011;35340;52.378;4.648;2022-08-27T21:47:06;14.20;;;4.25;;
48941;SDS011;35340;52.378;4.648;2022-08-27T21:49:32;11.75;;;4.53;;
48941;SDS011;35340;52.378;4.648;2022-08-27T21:51:58;9.82;;;4.45;;
48941;SDS011;35340;52.378;4.648;2022-08-27T21:54:25;11.10;;;4.55;;
48941;SDS011;35340;52.378;4.648;2022-08-27T21:56:51;9.05;;;4.07;;
48941;SDS011;35340;52.378;4.648;2022-08-27T21:59:16;10.90;;;3.63;;
48941;SDS011;35340;52.378;4.648;2022-08-27T22:01:42;11.15;;;4.25;;
48941;SDS011;35340;52.378;4.648;2022-08-27T22:04:07;11.20;;;4.18;;
48941;SDS011;35340;52.378;4.648;2022-08-27T22:06:33;9.02;;;4.03;;
48941;SDS011;35340;52.378;4.648;2022-08-27T22:08:58;13.60;;;4.70;;
48941;SDS011;35340;52.378;4.648;2022-08-27T22:11:24;9.43;;;4.22;;
48941;SDS011;35340;52.378;4.648;2022-08-27T22:13:50;8.05;;;4.13;;